createdAt,value
2023-03-06T00:01:17.552Z,6.00
2023-03-06T00:02:49.701Z,6.30
2023-03-06T00:04:21.469Z,9.07
2023-03-06T00:05:57.403Z,6.43
2023-03-06T00:07:29.315Z,6.70
2023-03-06T00:09:01.053Z,5.73
2023-03-06T00:10:33.193Z,6.30
2023-03-06T00:12:05.197Z,8.90
2023-03-06T00:13:36.942Z,8.47
2023-03-06T00:15:09.432Z,8.00
2023-03-06T00:16:41.319Z,10.00
2023-03-06T00:18:13.780Z,8.30
2023-03-06T00:19:45.463Z,8.00
2023-03-06T00:21:17.138Z,9.57
2023-03-06T00:22:49.604Z,10.37
2023-03-06T00:24:21.358Z,8.23
2023-03-06T00:25:53.236Z,11.17
2023-03-06T00:27:26.182Z,8.07
2023-03-06T00:28:57.904Z,11.10
2023-03-06T00:30:29.707Z,11.13
2023-03-06T00:32:01.877Z,11.97
2023-03-06T00:33:33.647Z,9.37
2023-03-06T00:35:05.891Z,11.40
2023-03-06T00:36:37.619Z,9.93
2023-03-06T00:38:12.197Z,12.67
2023-03-06T00:39:43.891Z,9.60
2023-03-06T00:41:15.717Z,13.40
2023-03-06T00:42:47.887Z,9.67
2023-03-06T00:44:19.548Z,12.63
2023-03-06T00:45:51.400Z,13.00
2023-03-06T00:47:23.147Z,11.93
2023-03-06T00:48:54.897Z,15.23
2023-03-06T00:50:26.645Z,14.73
2023-03-06T00:51:58.357Z,13.00
2023-03-06T00:53:30.048Z,11.83
2023-03-06T00:55:02.040Z,13.47
2023-03-06T00:56:33.784Z,12.73
2023-03-06T00:58:05.521Z,12.80
2023-03-06T00:59:37.252Z,16.63
2023-03-06T01:01:09.181Z,16.43
2023-03-06T01:02:41.297Z,14.30
2023-03-06T01:04:13.259Z,14.40
2023-03-06T01:05:45.901Z,15.77
2023-03-06T01:07:17.672Z,12.90
2023-03-06T01:08:49.387Z,16.53
2023-03-06T01:10:22.672Z,16.77
2023-03-06T01:11:54.630Z,16.67
2023-03-06T01:13:26.441Z,15.53
2023-03-06T01:14:58.193Z,15.27
2023-03-06T01:16:30.465Z,15.40
2023-03-06T01:18:02.239Z,15.90
2023-03-06T01:19:33.969Z,13.20
2023-03-06T01:21:06.909Z,17.37
2023-03-06T01:22:39.564Z,15.13
2023-03-06T01:24:11.319Z,12.97
2023-03-06T01:25:43.069Z,14.87
2023-03-06T01:27:14.919Z,14.60
2023-03-06T01:28:48.606Z,17.23
2023-03-06T01:30:21.286Z,14.83
2023-03-06T01:31:53.012Z,17.73
2023-03-06T01:33:24.855Z,18.10
2023-03-06T01:34:56.534Z,16.00
2023-03-06T01:36:28.517Z,14.43
2023-03-06T01:38:00.220Z,16.53
2023-03-06T01:39:31.903Z,16.53
2023-03-06T01:41:04.457Z,18.83
2023-03-06T01:42:36.373Z,15.87
2023-03-06T01:44:10.931Z,17.13
2023-03-06T01:46:05.885Z,16.47
2023-03-06T01:47:37.606Z,23.83
2023-03-06T01:49:25.150Z,15.23
2023-03-06T01:50:56.902Z,13.80
2023-03-06T01:52:41.291Z,15.60
2023-03-06T01:54:17.655Z,20.33
2023-03-06T01:55:49.707Z,20.07
2023-03-06T01:57:32.414Z,15.13
2023-03-06T01:59:04.763Z,16.00
2023-03-06T02:00:36.512Z,17.00
2023-03-06T02:02:10.742Z,19.13
2023-03-06T02:03:43.344Z,16.00
2023-03-06T02:05:15.054Z,14.87
2023-03-06T02:06:48.295Z,15.80
2023-03-06T02:08:22.208Z,15.47
2023-03-06T02:09:54.018Z,15.40
2023-03-06T02:11:28.242Z,21.37
2023-03-06T02:13:00.612Z,17.67
2023-03-06T02:14:32.482Z,15.43
2023-03-06T02:16:04.622Z,18.03
2023-03-06T02:17:36.616Z,16.00
2023-03-06T02:19:21.507Z,15.37
2023-03-06T02:20:57.910Z,16.17
2023-03-06T02:22:37.703Z,16.47
2023-03-06T02:24:27.765Z,19.80
2023-03-06T02:26:00.926Z,17.10
2023-03-06T02:27:32.783Z,16.27
2023-03-06T02:29:04.787Z,18.23
2023-03-06T02:30:36.907Z,15.60
2023-03-06T02:32:08.691Z,15.00
2023-03-06T02:33:40.729Z,17.03
2023-03-06T02:35:22.535Z,15.80
2023-03-06T02:37:02.676Z,16.10
2023-03-06T02:38:45.424Z,15.43
2023-03-06T02:40:18.629Z,14.63
2023-03-06T02:41:50.344Z,18.13
2023-03-06T02:43:27.884Z,14.53
2023-03-06T02:45:02.246Z,16.23
2023-03-06T02:46:33.993Z,15.93
2023-03-06T02:48:06.598Z,16.43
2023-03-06T02:49:38.431Z,17.63
2023-03-06T02:51:10.400Z,15.77
2023-03-06T02:52:42.126Z,20.73
2023-03-06T02:54:13.972Z,14.20
2023-03-06T02:55:47.837Z,17.70
2023-03-06T02:57:20.796Z,13.87
2023-03-06T02:58:53.400Z,16.70
2023-03-06T03:00:26.545Z,15.77
2023-03-06T03:01:58.802Z,19.43
2023-03-06T03:03:30.606Z,15.20
2023-03-06T03:05:03.265Z,16.53
2023-03-06T03:06:35.823Z,14.23
2023-03-06T03:08:07.963Z,16.10
2023-03-06T03:09:39.902Z,15.90
2023-03-06T03:11:12.205Z,15.73
2023-03-06T03:12:47.726Z,14.77
2023-03-06T03:14:19.461Z,13.57
2023-03-06T03:16:06.299Z,14.57
2023-03-06T03:17:40.730Z,15.40
2023-03-06T03:19:13.076Z,14.03
2023-03-06T03:20:44.747Z,15.03
2023-03-06T03:22:17.538Z,13.67
2023-03-06T03:23:49.369Z,15.27
2023-03-06T03:25:22.701Z,14.83
2023-03-06T03:26:54.960Z,16.67
2023-03-06T03:28:28.316Z,13.67
2023-03-06T03:30:00.865Z,20.33
2023-03-06T03:31:34.084Z,13.40
2023-03-06T03:33:07.868Z,16.30
2023-03-06T03:34:40.892Z,17.23
2023-03-06T03:36:13.005Z,16.47
2023-03-06T03:37:48.796Z,14.30
2023-03-06T03:39:20.682Z,13.80
2023-03-06T03:40:52.459Z,15.83
2023-03-06T03:42:24.654Z,17.50
2023-03-06T03:43:56.362Z,16.60
2023-03-06T03:45:28.519Z,18.93
2023-03-06T03:47:00.333Z,16.73
2023-03-06T03:48:32.278Z,19.10
2023-03-06T03:50:05.081Z,19.90
2023-03-06T03:51:36.901Z,19.47
2023-03-06T03:53:08.810Z,23.87
2023-03-06T03:54:40.498Z,20.50
2023-03-06T03:56:13.086Z,19.77
2023-03-06T03:57:53.174Z,21.07
2023-03-06T03:59:25.120Z,20.40
2023-03-06T04:01:08.810Z,17.67
2023-03-06T04:02:42.120Z,23.00
2023-03-06T04:04:25.402Z,18.87
2023-03-06T04:05:58.002Z,16.03
2023-03-06T04:07:30.364Z,17.63
2023-03-06T04:09:02.261Z,16.87
2023-03-06T04:10:34.542Z,18.73
2023-03-06T04:12:07.755Z,16.60
2023-03-06T04:13:41.298Z,17.13
2023-03-06T04:15:13.029Z,17.57
2023-03-06T04:16:45.179Z,16.63
2023-03-06T04:18:18.163Z,18.73
2023-03-06T04:19:50.523Z,14.90
2023-03-06T04:21:22.772Z,17.40
2023-03-06T04:22:54.545Z,14.73
2023-03-06T04:24:26.985Z,16.03
2023-03-06T04:25:58.829Z,16.77
2023-03-06T04:27:30.604Z,22.37
2023-03-06T04:29:02.544Z,18.90
2023-03-06T04:30:35.169Z,20.03
2023-03-06T04:32:07.408Z,17.43
2023-03-06T04:33:39.427Z,18.00
2023-03-06T04:35:12.002Z,16.90
2023-03-06T04:36:53.396Z,22.50
2023-03-06T04:38:25.168Z,19.97
2023-03-06T04:39:57.309Z,18.47
2023-03-06T04:41:29.079Z,19.97
2023-03-06T04:43:02.186Z,16.70
2023-03-06T04:44:34.006Z,16.07
2023-03-06T04:46:05.879Z,19.37
2023-03-06T04:47:37.625Z,17.37
2023-03-06T04:49:09.412Z,14.90
2023-03-06T04:50:41.762Z,18.40
2023-03-06T04:52:13.575Z,19.57
2023-03-06T04:53:45.454Z,20.00
2023-03-06T04:55:17.709Z,17.73
2023-03-06T04:56:49.431Z,24.17
2023-03-06T04:58:21.189Z,21.90
2023-03-06T04:59:52.881Z,20.50
2023-03-06T05:01:24.584Z,18.07
2023-03-06T05:03:00.856Z,19.50
2023-03-06T05:04:32.604Z,19.80
2023-03-06T05:06:04.693Z,20.23
2023-03-06T05:07:36.557Z,20.03
2023-03-06T05:09:08.342Z,22.60
2023-03-06T05:10:40.154Z,21.90
2023-03-06T05:12:11.851Z,18.97
2023-03-06T05:13:43.665Z,20.63
2023-03-06T05:15:16.944Z,22.10
2023-03-06T05:16:48.702Z,20.83
2023-03-06T05:18:21.271Z,18.80
2023-03-06T05:19:53.067Z,22.10
2023-03-06T05:21:24.804Z,24.73
2023-03-06T05:22:56.759Z,19.77
2023-03-06T05:24:28.543Z,24.67
2023-03-06T05:26:00.225Z,23.33
2023-03-06T05:27:32.540Z,26.47
2023-03-06T05:29:04.386Z,19.40
2023-03-06T05:30:36.982Z,21.97
2023-03-06T05:32:08.877Z,20.03
2023-03-06T05:33:40.817Z,21.73
2023-03-06T05:35:18.198Z,25.20
2023-03-06T05:36:49.911Z,28.23
2023-03-06T05:38:23.055Z,27.67
2023-03-06T05:39:54.801Z,24.40
2023-03-06T05:41:26.561Z,26.80
2023-03-06T05:42:58.236Z,30.00
2023-03-06T05:44:34.070Z,24.80
2023-03-06T05:46:07.080Z,24.23
2023-03-06T05:47:38.967Z,23.03
2023-03-06T05:49:10.792Z,25.43
2023-03-06T05:50:42.463Z,24.20
2023-03-06T05:52:14.890Z,28.95
2023-03-06T05:53:46.820Z,24.53
2023-03-06T05:55:21.056Z,22.17
2023-03-06T05:56:52.788Z,27.90
2023-03-06T05:58:24.772Z,23.30
2023-03-06T05:59:56.624Z,25.80
2023-03-06T06:01:30.108Z,26.23
2023-03-06T06:03:02.215Z,24.80
2023-03-06T06:04:33.918Z,22.60
2023-03-06T06:06:07.606Z,24.37
2023-03-06T06:07:39.320Z,22.40
2023-03-06T06:09:13.748Z,25.33
2023-03-06T06:10:45.617Z,24.40
2023-03-06T06:12:17.319Z,26.40
2023-03-06T06:13:49.403Z,26.17
2023-03-06T06:15:21.166Z,25.60
2023-03-06T06:16:55.789Z,27.40
2023-03-06T06:18:27.451Z,26.77
2023-03-06T06:19:59.256Z,26.10
2023-03-06T06:21:30.916Z,24.53
2023-03-06T06:23:02.841Z,24.10
2023-03-06T06:24:34.651Z,23.63
2023-03-06T06:26:08.061Z,24.50
2023-03-06T06:27:39.897Z,24.20
2023-03-06T06:29:13.349Z,24.60
2023-03-06T06:30:45.171Z,24.90
2023-03-06T06:32:16.968Z,25.33
2023-03-06T06:33:48.630Z,23.97
2023-03-06T06:35:20.485Z,24.47
2023-03-06T06:36:53.569Z,25.07
2023-03-06T06:38:25.897Z,26.73
2023-03-06T06:39:57.955Z,25.53
2023-03-06T06:41:46.965Z,20.17
2023-03-06T06:43:21.772Z,22.27
2023-03-06T06:44:53.515Z,22.53
2023-03-06T06:47:14.397Z,22.10
2023-03-06T06:48:18.075Z,21.30
2023-03-06T06:49:57.373Z,21.37
2023-03-06T06:51:33.695Z,24.20
2023-03-06T06:53:05.418Z,21.30
2023-03-06T06:54:37.322Z,24.37
2023-03-06T06:56:09.038Z,24.17
2023-03-06T06:57:42.172Z,25.07
2023-03-06T06:59:17.190Z,24.43
2023-03-06T07:00:49.293Z,23.53
2023-03-06T07:02:21.170Z,25.00
2023-03-06T07:03:52.974Z,21.47
2023-03-06T07:05:24.734Z,25.10
2023-03-06T07:06:57.207Z,25.63
2023-03-06T07:08:28.978Z,24.77
2023-03-06T07:10:00.748Z,25.77
2023-03-06T07:11:32.459Z,29.97
2023-03-06T07:13:04.148Z,29.43
2023-03-06T07:14:36.588Z,34.57
2023-03-06T07:16:08.429Z,27.47
2023-03-06T07:17:40.263Z,31.50
2023-03-06T07:19:11.983Z,30.67
2023-03-06T07:20:43.730Z,36.90
2023-03-06T07:22:15.508Z,39.43
2023-03-06T07:23:47.551Z,34.77
2023-03-06T07:25:19.722Z,36.40
2023-03-06T07:26:51.695Z,35.90
2023-03-06T07:28:24.016Z,35.70
2023-03-06T07:29:55.753Z,36.63
2023-03-06T07:31:28.382Z,41.30
2023-03-06T07:33:00.427Z,40.77
2023-03-06T07:34:32.123Z,38.70
2023-03-06T07:36:04.148Z,37.77
2023-03-06T07:37:35.836Z,40.23
2023-03-06T07:39:08.345Z,41.30
2023-03-06T07:40:40.155Z,40.87
2023-03-06T07:42:15.185Z,40.03
2023-03-06T07:43:57.731Z,43.03
2023-03-06T07:45:29.454Z,37.07
2023-03-06T07:47:01.232Z,39.60
2023-03-06T07:48:34.780Z,38.20
2023-03-06T07:50:07.472Z,40.70
2023-03-06T07:51:39.195Z,37.93
2023-03-06T07:53:11.629Z,36.07
2023-03-06T07:54:43.379Z,41.83
2023-03-06T07:56:15.931Z,37.10
2023-03-06T07:57:50.638Z,34.27
2023-03-06T07:59:22.394Z,35.20
2023-03-06T08:00:54.104Z,37.13
2023-03-06T08:02:25.815Z,38.70
2023-03-06T08:03:57.628Z,35.67
2023-03-06T08:05:29.443Z,36.07
2023-03-06T08:07:01.141Z,37.83
2023-03-06T08:08:39.184Z,37.30
2023-03-06T08:10:14.834Z,34.30
2023-03-06T08:11:46.559Z,35.70
2023-03-06T08:13:18.302Z,38.23
2023-03-06T08:14:50.022Z,34.70
2023-03-06T08:16:23.912Z,37.43
2023-03-06T08:17:55.814Z,34.93
2023-03-06T08:19:27.538Z,36.73
2023-03-06T08:21:14.258Z,41.77
2023-03-06T08:22:46.207Z,37.60
2023-03-06T08:24:18.577Z,38.70
2023-03-06T08:25:56.605Z,39.97
2023-03-06T08:27:28.374Z,40.57
2023-03-06T08:29:02.153Z,39.17
2023-03-06T08:30:33.879Z,38.47
2023-03-06T08:32:05.963Z,42.43
2023-03-06T08:33:38.920Z,40.10
2023-03-06T08:35:15.328Z,37.23
2023-03-06T08:36:47.216Z,40.03
2023-03-06T08:38:18.969Z,45.67
2023-03-06T08:39:50.727Z,40.17
2023-03-06T08:41:22.823Z,35.80
2023-03-06T08:42:54.544Z,35.90
2023-03-06T08:44:26.242Z,38.77
2023-03-06T08:45:58.909Z,43.17
2023-03-06T08:47:30.905Z,38.87
2023-03-06T08:49:02.967Z,40.23
2023-03-06T08:50:34.810Z,36.47
2023-03-06T08:52:07.694Z,37.30
2023-03-06T08:53:43.490Z,49.17
2023-03-06T08:55:15.876Z,41.37
2023-03-06T08:56:47.602Z,40.07
2023-03-06T08:58:19.273Z,38.43
2023-03-06T08:59:53.381Z,35.50
2023-03-06T09:01:30.809Z,35.00
2023-03-06T09:03:02.836Z,34.43
2023-03-06T09:04:34.866Z,43.40
2023-03-06T09:06:06.724Z,36.70
2023-03-06T09:07:38.400Z,39.93
2023-03-06T09:09:10.631Z,36.17
2023-03-06T09:10:49.315Z,36.77
2023-03-06T09:12:21.241Z,36.00
2023-03-06T09:13:53.785Z,37.63
2023-03-06T09:15:25.988Z,38.60
2023-03-06T09:16:57.751Z,38.00
2023-03-06T09:18:29.604Z,36.93
2023-03-06T09:20:01.304Z,37.93
2023-03-06T09:21:33.093Z,32.63
2023-03-06T09:23:04.802Z,34.90
2023-03-06T09:24:36.724Z,33.00
2023-03-06T09:26:08.636Z,38.13
2023-03-06T09:27:41.458Z,36.63
2023-03-06T09:29:13.306Z,37.50
2023-03-06T09:30:45.041Z,37.80
2023-03-06T09:32:16.847Z,34.57
2023-03-06T09:33:48.616Z,33.00
2023-03-06T09:35:20.401Z,37.93
2023-03-06T09:36:57.307Z,34.03
2023-03-06T09:38:29.475Z,35.03
2023-03-06T09:40:01.306Z,36.90
2023-03-06T09:41:36.342Z,30.77
2023-03-06T09:43:20.055Z,29.90
2023-03-06T09:44:56.759Z,28.10
2023-03-06T09:47:00.145Z,30.23
2023-03-06T09:48:49.736Z,29.87
2023-03-06T09:50:46.069Z,33.13
2023-03-06T09:52:23.690Z,31.50
2023-03-06T09:54:14.129Z,31.80
2023-03-06T09:56:14.529Z,29.70
2023-03-06T09:58:10.286Z,28.00
2023-03-06T09:59:47.482Z,31.10
2023-03-06T10:01:27.600Z,28.60
2023-03-06T10:03:27.147Z,29.73
2023-03-06T10:05:03.878Z,28.83
2023-03-06T10:06:50.211Z,31.27
2023-03-06T10:08:36.498Z,29.83
2023-03-06T10:10:17.222Z,28.33
2023-03-06T10:11:56.849Z,28.80
2023-03-06T10:13:39.130Z,30.53
2023-03-06T10:15:27.451Z,31.37
2023-03-06T10:17:00.476Z,28.70
2023-03-06T10:18:32.861Z,31.13
2023-03-06T10:20:36.748Z,30.67
2023-03-06T10:22:20.387Z,28.70
2023-03-06T10:24:05.006Z,27.97
2023-03-06T10:25:54.842Z,28.13
2023-03-06T10:27:46.050Z,31.50
2023-03-06T10:29:31.031Z,30.00
2023-03-06T10:31:15.232Z,28.50
2023-03-06T10:32:58.736Z,29.53
2023-03-06T10:34:35.208Z,27.80
2023-03-06T10:36:12.697Z,28.37
2023-03-06T10:37:44.437Z,32.90
2023-03-06T10:39:19.674Z,29.30
2023-03-06T10:40:56.681Z,32.37
2023-03-06T10:42:28.999Z,32.70
2023-03-06T10:44:00.663Z,31.23
2023-03-06T10:45:47.274Z,28.90
2023-03-06T10:47:35.284Z,29.53
2023-03-06T10:49:25.877Z,29.40
2023-03-06T10:51:19.357Z,27.63
2023-03-06T10:53:04.344Z,29.77
2023-03-06T10:54:38.281Z,30.50
2023-03-06T10:56:10.305Z,29.40
2023-03-06T10:57:42.027Z,33.83
2023-03-06T10:59:19.832Z,31.73
2023-03-06T11:01:18.363Z,28.90
2023-03-06T11:03:25.022Z,28.10
2023-03-06T11:04:59.283Z,30.77
2023-03-06T11:06:36.997Z,28.13
2023-03-06T11:08:22.690Z,27.90
2023-03-06T11:09:57.459Z,31.00
2023-03-06T11:11:37.491Z,25.33
2023-03-06T11:13:31.829Z,23.83
2023-03-06T11:15:15.069Z,24.50
2023-03-06T11:16:55.933Z,24.60
2023-03-06T11:18:39.501Z,24.23
2023-03-06T11:20:48.484Z,24.67
2023-03-06T11:22:22.653Z,21.93
2023-03-06T11:23:57.613Z,24.37
2023-03-06T11:25:40.811Z,22.60
2023-03-06T11:27:18.778Z,20.87
2023-03-06T11:29:02.530Z,20.57
2023-03-06T11:30:49.200Z,21.67
2023-03-06T11:32:28.575Z,19.57
2023-03-06T11:34:20.012Z,17.30
2023-03-06T11:36:03.087Z,21.50
2023-03-06T11:37:37.534Z,20.17
2023-03-06T11:39:29.631Z,18.33
2023-03-06T11:41:05.818Z,20.03
2023-03-06T11:42:52.655Z,19.10
2023-03-06T11:44:32.914Z,20.53
2023-03-06T11:46:15.234Z,19.07
2023-03-06T11:48:18.870Z,17.07
2023-03-06T11:50:14.806Z,15.93
2023-03-06T11:51:56.510Z,18.10
2023-03-06T11:53:37.498Z,15.17
2023-03-06T11:55:14.822Z,18.53
2023-03-06T11:57:15.327Z,16.70
2023-03-06T11:59:14.418Z,17.60
2023-03-06T12:01:04.137Z,16.93
2023-03-06T12:03:09.188Z,16.17
2023-03-06T12:04:49.274Z,18.27
2023-03-06T12:06:29.884Z,18.33
2023-03-06T12:08:22.860Z,18.63
2023-03-06T12:11:39.518Z,21.10
2023-03-06T12:13:31.498Z,16.33
2023-03-06T12:15:40.536Z,17.20
2023-03-06T12:17:30.652Z,16.10
2023-03-06T12:19:28.185Z,14.67
2023-03-06T12:21:05.504Z,14.13
2023-03-06T12:22:57.964Z,18.83
2023-03-06T12:24:50.056Z,21.13
2023-03-06T12:26:30.651Z,20.53
2023-03-06T12:28:31.977Z,16.27
2023-03-06T12:30:39.245Z,18.37
2023-03-06T12:32:38.105Z,19.67
2023-03-06T12:34:38.838Z,18.60
2023-03-06T12:36:32.579Z,20.07
2023-03-06T12:38:31.896Z,19.93
2023-03-06T12:40:21.900Z,19.07
2023-03-06T12:42:29.568Z,20.80
2023-03-06T12:44:20.267Z,20.47
2023-03-06T12:45:59.080Z,19.57
2023-03-06T12:47:38.294Z,21.20
2023-03-06T12:49:26.378Z,24.20
2023-03-06T12:51:07.370Z,26.43
2023-03-06T12:52:39.288Z,20.77
2023-03-06T12:54:14.019Z,23.07
2023-03-06T12:55:48.642Z,19.83
2023-03-06T12:57:24.102Z,18.77
2023-03-06T12:58:57.451Z,24.03
2023-03-06T13:00:35.117Z,22.90
2023-03-06T13:02:25.095Z,20.77
2023-03-06T13:04:15.345Z,22.07
2023-03-06T13:06:21.412Z,19.00
2023-03-06T13:08:14.697Z,20.70
2023-03-06T13:09:52.107Z,18.73
2023-03-06T13:11:57.424Z,20.97
2023-03-06T13:13:31.405Z,17.70
2023-03-06T13:15:29.443Z,19.30
2023-03-06T13:17:36.697Z,20.10
2023-03-06T13:19:20.158Z,18.70
2023-03-06T13:20:53.770Z,19.57
2023-03-06T13:22:29.472Z,21.50
2023-03-06T13:24:05.616Z,19.47
2023-03-06T13:25:47.875Z,17.40
2023-03-06T13:27:45.711Z,22.30
2023-03-06T13:29:36.116Z,21.27
2023-03-06T13:31:18.206Z,19.60
2023-03-06T13:32:56.868Z,22.20
2023-03-06T13:34:31.385Z,20.03
2023-03-06T13:36:20.954Z,23.47
2023-03-06T13:37:53.043Z,18.07
2023-03-06T13:39:24.730Z,17.33
2023-03-06T13:41:20.612Z,16.43
2023-03-06T13:42:52.633Z,18.50
2023-03-06T13:44:24.400Z,25.40
2023-03-06T13:45:56.289Z,16.70
2023-03-06T13:48:02.461Z,16.13
2023-03-06T13:49:30.712Z,17.03
2023-03-06T13:51:43.026Z,15.27
2023-03-06T13:53:51.641Z,17.37
2023-03-06T13:55:35.643Z,14.90
2023-03-06T13:57:44.735Z,17.10
2023-03-06T13:59:37.196Z,16.10
2023-03-06T14:01:22.333Z,16.17
2023-03-06T14:03:10.501Z,17.63
2023-03-06T14:04:42.148Z,14.47
2023-03-06T14:06:48.133Z,11.40
2023-03-06T14:08:23.587Z,15.60
2023-03-06T14:10:13.526Z,14.20
2023-03-06T14:11:53.940Z,14.47
2023-03-06T14:13:41.635Z,12.93
2023-03-06T14:15:20.763Z,13.17
2023-03-06T14:16:53.493Z,12.00
2023-03-06T14:18:38.292Z,13.27
2023-03-06T14:20:15.444Z,14.97
2023-03-06T14:21:56.061Z,15.20
2023-03-06T14:23:38.047Z,14.83
2023-03-06T14:25:36.338Z,13.57
2023-03-06T14:27:18.549Z,18.23
2023-03-06T14:28:52.991Z,17.57
2023-03-06T14:30:26.337Z,18.13
2023-03-06T14:32:00.696Z,19.07
2023-03-06T14:33:41.142Z,17.80
2023-03-06T14:35:30.525Z,25.10
2023-03-06T14:37:05.503Z,19.00
2023-03-06T14:38:43.645Z,19.40
2023-03-06T14:40:29.630Z,18.90
2023-03-06T14:42:34.230Z,16.87
2023-03-06T14:44:26.395Z,22.83
2023-03-06T14:46:04.896Z,19.57
2023-03-06T14:47:37.858Z,21.23
2023-03-06T14:49:10.627Z,22.53
2023-03-06T14:50:50.809Z,22.67
2023-03-06T14:52:22.541Z,22.60
2023-03-06T14:54:00.552Z,21.93
2023-03-06T14:55:35.275Z,21.30
2023-03-06T14:57:13.075Z,21.47
2023-03-06T14:59:00.063Z,20.30
2023-03-06T15:00:40.012Z,21.20
2023-03-06T15:02:20.256Z,20.50
2023-03-06T15:03:55.213Z,20.20
2023-03-06T15:05:29.799Z,22.33
2023-03-06T15:07:04.338Z,21.23
2023-03-06T15:08:39.089Z,20.33
2023-03-06T15:10:30.635Z,23.50
2023-03-06T15:12:08.387Z,22.50
2023-03-06T15:13:40.397Z,21.93
2023-03-06T15:15:12.648Z,21.47
2023-03-06T15:16:44.445Z,19.53
2023-03-06T15:18:35.186Z,22.20
2023-03-06T15:20:27.864Z,21.70
2023-03-06T15:21:59.596Z,18.87
2023-03-06T15:23:41.748Z,22.13
2023-03-06T15:25:16.045Z,20.73
2023-03-06T15:26:55.049Z,20.00
2023-03-06T15:28:38.574Z,22.47
2023-03-06T15:30:32.523Z,20.07
2023-03-06T15:32:33.659Z,22.87
2023-03-06T15:34:10.834Z,18.53
2023-03-06T15:35:54.870Z,20.83
2023-03-06T15:37:28.629Z,19.20
2023-03-06T15:39:00.844Z,21.73
2023-03-06T15:40:32.919Z,20.73
2023-03-06T15:42:22.284Z,21.77
2023-03-06T15:43:54.078Z,17.67
2023-03-06T15:45:28.071Z,26.47
2023-03-06T15:47:08.421Z,23.67
2023-03-06T15:48:59.785Z,27.47
2023-03-06T15:50:32.819Z,19.67
2023-03-06T15:52:05.959Z,25.60
2023-03-06T15:53:37.640Z,21.03
2023-03-06T15:55:12.229Z,19.53
2023-03-06T15:56:46.025Z,21.30
2023-03-06T15:58:24.803Z,20.97
2023-03-06T15:59:57.599Z,17.80
2023-03-06T16:01:29.338Z,21.10
2023-03-06T16:03:02.127Z,17.63
2023-03-06T16:04:33.894Z,15.80
2023-03-06T16:06:05.758Z,17.40
2023-03-06T16:07:37.504Z,17.00
2023-03-06T16:09:09.653Z,16.30
2023-03-06T16:10:43.825Z,19.17
2023-03-06T16:12:18.305Z,15.80
2023-03-06T16:13:50.028Z,16.37
2023-03-06T16:15:25.543Z,14.87
2023-03-06T16:16:57.430Z,16.33
2023-03-06T16:18:31.428Z,15.87
2023-03-06T16:20:03.200Z,14.73
2023-03-06T16:21:34.893Z,15.17
2023-03-06T16:23:10.199Z,17.00
2023-03-06T16:24:43.151Z,13.40
2023-03-06T16:26:31.600Z,13.53
2023-03-06T16:28:04.777Z,13.40
2023-03-06T16:29:36.576Z,13.80
2023-03-06T16:31:12.195Z,13.87
2023-03-06T16:32:45.019Z,15.50
2023-03-06T16:34:19.490Z,13.83
2023-03-06T16:35:51.232Z,14.40
2023-03-06T16:37:24.130Z,14.50
2023-03-06T16:38:58.841Z,15.23
2023-03-06T16:40:37.498Z,14.93
2023-03-06T16:42:09.238Z,13.43
2023-03-06T16:43:41.043Z,16.47
2023-03-06T16:45:13.159Z,15.10
2023-03-06T16:46:47.036Z,14.73
2023-03-06T16:48:18.838Z,18.53
2023-03-06T16:49:55.749Z,16.90
2023-03-06T16:51:27.485Z,16.67
2023-03-06T16:52:59.648Z,17.70
2023-03-06T16:54:31.324Z,17.67
2023-03-06T16:56:03.055Z,17.53
2023-03-06T16:57:35.676Z,16.87
2023-03-06T16:59:07.534Z,18.13
2023-03-06T17:00:39.278Z,18.63
2023-03-06T17:02:12.061Z,20.47
2023-03-06T17:03:44.572Z,24.63
2023-03-06T17:05:17.338Z,19.07
2023-03-06T17:06:49.155Z,21.30
2023-03-06T17:08:21.127Z,21.13
2023-03-06T17:09:52.784Z,18.27
2023-03-06T17:11:24.975Z,19.30
2023-03-06T17:12:57.166Z,19.20
2023-03-06T17:14:29.720Z,21.13
2023-03-06T17:16:02.063Z,19.70
2023-03-06T17:17:34.113Z,24.77
2023-03-06T17:19:06.574Z,20.80
2023-03-06T17:20:38.466Z,20.60
2023-03-06T17:22:10.355Z,22.03
2023-03-06T17:23:42.218Z,25.80
2023-03-06T17:25:14.139Z,23.53
2023-03-06T17:26:46.840Z,21.07
2023-03-06T17:28:21.567Z,21.47
2023-03-06T17:29:59.569Z,20.63
2023-03-06T17:31:31.616Z,23.27
2023-03-06T17:33:03.442Z,23.47
2023-03-06T17:34:35.146Z,21.83
2023-03-06T17:36:07.614Z,24.70
2023-03-06T17:37:39.421Z,19.63
2023-03-06T17:39:12.784Z,22.10
2023-03-06T17:40:44.544Z,26.13
2023-03-06T17:42:17.184Z,21.33
2023-03-06T17:43:48.960Z,23.60
2023-03-06T17:45:20.752Z,22.17
2023-03-06T17:46:52.528Z,24.00
2023-03-06T17:48:27.136Z,21.70
2023-03-06T17:49:58.837Z,21.80
2023-03-06T17:51:30.651Z,24.67
2023-03-06T17:53:02.382Z,22.97
2023-03-06T17:54:34.338Z,22.20
2023-03-06T17:56:09.523Z,21.03
2023-03-06T17:57:41.246Z,21.30
2023-03-06T17:59:12.989Z,23.63
2023-03-06T18:00:45.761Z,21.50
2023-03-06T18:02:17.647Z,19.40
2023-03-06T18:03:51.304Z,20.43
2023-03-06T18:05:23.033Z,23.03
2023-03-06T18:06:54.858Z,19.37
2023-03-06T18:08:26.539Z,23.30
2023-03-06T18:09:58.242Z,18.90
2023-03-06T18:11:30.444Z,22.87
2023-03-06T18:13:02.157Z,23.70
2023-03-06T18:14:34.415Z,22.10
2023-03-06T18:16:07.895Z,22.83
2023-03-06T18:17:39.739Z,22.57
2023-03-06T18:19:11.661Z,25.20
2023-03-06T18:20:44.719Z,19.87
2023-03-06T18:22:18.228Z,21.60
2023-03-06T18:23:50.485Z,23.77
2023-03-06T18:25:22.152Z,20.33
2023-03-06T18:26:53.835Z,21.47
2023-03-06T18:28:25.548Z,21.30
2023-03-06T18:29:57.765Z,22.23
2023-03-06T18:31:37.634Z,23.23
2023-03-06T18:33:10.161Z,22.77
2023-03-06T18:34:41.936Z,24.93
2023-03-06T18:36:13.908Z,22.43
2023-03-06T18:37:45.640Z,22.43
2023-03-06T18:39:17.812Z,21.50
2023-03-06T18:40:49.485Z,21.40
2023-03-06T18:42:21.205Z,23.43
2023-03-06T18:43:57.956Z,22.43
2023-03-06T18:45:29.706Z,22.07
2023-03-06T18:47:02.787Z,23.33
2023-03-06T18:48:35.200Z,19.60
2023-03-06T18:50:07.296Z,22.40
2023-03-06T18:51:39.121Z,20.27
2023-03-06T18:53:10.828Z,23.53
2023-03-06T18:54:42.770Z,22.27
2023-03-06T18:56:17.246Z,21.37
2023-03-06T18:57:48.909Z,20.33
2023-03-06T18:59:20.955Z,20.53
2023-03-06T19:00:53.048Z,24.93
2023-03-06T19:02:24.778Z,21.13
2023-03-06T19:03:58.670Z,23.93
2023-03-06T19:05:30.412Z,23.70
2023-03-06T19:07:02.148Z,22.50
2023-03-06T19:08:34.681Z,20.67
2023-03-06T19:10:07.170Z,21.03
2023-03-06T19:11:38.902Z,27.50
2023-03-06T19:13:10.755Z,25.73
2023-03-06T19:14:42.501Z,21.53
2023-03-06T19:16:19.718Z,23.07
2023-03-06T19:17:51.482Z,22.40
2023-03-06T19:19:26.345Z,24.37
2023-03-06T19:21:09.523Z,24.87
2023-03-06T19:22:41.213Z,26.07
2023-03-06T19:24:14.215Z,24.27
2023-03-06T19:25:56.694Z,26.60
2023-03-06T19:27:28.398Z,23.93
2023-03-06T19:29:00.174Z,25.13
2023-03-06T19:30:31.996Z,25.57
2023-03-06T19:32:03.914Z,23.70
2023-03-06T19:33:37.678Z,23.20
2023-03-06T19:35:10.888Z,21.60
2023-03-06T19:36:42.589Z,19.87
2023-03-06T19:38:15.449Z,18.00
2023-03-06T19:39:47.192Z,21.47
2023-03-06T19:41:18.871Z,22.40
2023-03-06T19:42:50.754Z,20.67
2023-03-06T19:44:23.155Z,19.87
2023-03-06T19:45:55.738Z,21.60
2023-03-06T19:47:27.449Z,17.53
2023-03-06T19:49:01.562Z,23.60
2023-03-06T19:50:34.491Z,22.80
2023-03-06T19:52:08.877Z,24.30
2023-03-06T19:53:40.675Z,20.53
2023-03-06T19:55:12.393Z,21.60
2023-03-06T19:56:44.114Z,24.10
2023-03-06T19:58:15.818Z,23.10
2023-03-06T19:59:51.313Z,22.30
2023-03-06T20:01:24.805Z,22.77
2023-03-06T20:02:57.591Z,22.83
2023-03-06T20:04:35.299Z,18.53
2023-03-06T20:06:12.178Z,21.37
2023-03-06T20:07:43.886Z,21.70
2023-03-06T20:09:15.988Z,22.40
2023-03-06T20:10:47.658Z,19.90
2023-03-06T20:12:19.346Z,20.10
2023-03-06T20:13:51.085Z,21.23
2023-03-06T20:15:22.845Z,20.13
2023-03-06T20:16:54.661Z,21.53
2023-03-06T20:18:26.390Z,19.27
2023-03-06T20:19:58.214Z,19.27
2023-03-06T20:21:33.721Z,26.60
2023-03-06T20:23:05.993Z,21.27
2023-03-06T20:24:38.089Z,24.70
2023-03-06T20:26:12.326Z,20.37
2023-03-06T20:27:44.078Z,23.23
2023-03-06T20:29:15.769Z,22.77
2023-03-06T20:30:47.910Z,24.90
2023-03-06T20:32:19.739Z,21.70
2023-03-06T20:33:53.834Z,19.07
2023-03-06T20:35:25.810Z,20.27
2023-03-06T20:36:57.788Z,19.93
2023-03-06T20:38:29.610Z,18.63
2023-03-06T20:40:01.473Z,21.20
2023-03-06T20:41:33.354Z,21.17